Time;durP1;ratioP1;P1;durP2;ratioP2;P2;SDS_P1;SDS_P2;PMS_P1;PMS_P2;Temp;Humidity;BMP_temperature;BMP_pressure;BME280_temperature;BME280_humidity;BME280_pressure;Samples;Min_cycle;Max_cycle;Signal;HPM_P1;HPM_P2
2022/12/25 00:00:05;;;;;;;13.93;7.77;;;7.00;99.90;;;;;;4114857;28;20038;-60
2022/12/25 00:02:06;;;;;;;12.27;6.83;;;7.10;99.90;;;;;;4113070;28;20043;-60
2022/12/25 00:04:07;;;;;;;12.17;7.73;;;7.10;99.90;;;;;;4114713;28;20097;-59
2022/12/25 00:06:08;;;;;;;10.30;6.87;;;7.00;99.90;;;;;;4113594;28;20587;-59
2022/12/25 00:08:09;;;;;;;12.07;6.53;;;7.00;99.90;;;;;;4114964;28;20120;-59
2022/12/25 00:10:11;;;;;;;12.10;6.53;;;7.10;99.90;;;;;;4112858;28;20043;-59
2022/12/25 00:12:12;;;;;;;12.37;7.10;;;7.10;99.90;;;;;;4114652;28;20035;-60
2022/12/25 00:14:13;;;;;;;13.57;6.70;;;7.10;99.90;;;;;;4114123;28;20034;-60
2022/12/25 00:16:23;;;;;;;12.13;5.83;;;7.10;99.90;;;;;;4114378;28;20038;-60
2022/12/25 00:18:25;;;;;;;11.88;6.63;;;7.10;99.90;;;;;;4113328;28;20047;-59
2022/12/25 00:20:26;;;;;;;10.03;6.90;;;7.10;99.90;;;;;;4097025;29;20075;-62
2022/12/25 00:22:28;;;;;;;11.83;6.70;;;7.10;99.90;;;;;;4114141;28;20105;-60
2022/12/25 00:24:29;;;;;;;12.83;7.50;;;7.10;99.90;;;;;;4112781;28;20558;-60
2022/12/25 00:26:31;;;;;;;10.10;7.00;;;7.10;99.90;;;;;;4114462;28;20566;-56
2022/12/25 00:28:32;;;;;;;15.67;6.83;;;7.10;99.90;;;;;;4113309;28;20034;-59
2022/12/25 00:30:33;;;;;;;12.23;6.60;;;7.10;99.90;;;;;;4114407;28;20039;-59
2022/12/25 00:32:36;;;;;;;10.83;7.00;;;7.00;99.90;;;;;;4112760;28;20427;-58
2022/12/25 00:34:37;;;;;;;12.83;7.40;;;7.00;99.90;;;;;;4114627;28;20149;-58
2022/12/25 00:36:38;;;;;;;11.03;6.20;;;7.00;99.90;;;;;;4113241;28;20065;-61
2022/12/25 00:38:40;;;;;;;9.17;6.63;;;7.00;99.90;;;;;;4114036;28;20070;-59
2022/12/25 00:40:43;;;;;;;10.60;6.37;;;7.00;99.90;;;;;;4112733;28;20117;-61
2022/12/25 00:42:44;;;;;;;10.53;6.10;;;6.90;99.90;;;;;;4114159;28;20078;-61
2022/12/25 00:44:47;;;;;;;10.30;6.47;;;6.90;99.90;;;;;;4113303;28;20035;-60
2022/12/25 00:46:48;;;;;;;10.87;6.53;;;6.90;99.90;;;;;;4113971;28;20529;-60
2022/12/25 00:48:49;;;;;;;12.77;7.93;;;6.90;99.90;;;;;;4113111;28;20030;-63
2022/12/25 00:51:01;;;;;;;10.30;6.70;;;6.90;99.90;;;;;;4114288;28;20085;-61
2022/12/25 00:53:02;;;;;;;9.17;6.30;;;6.90;99.90;;;;;;4113484;28;20439;-62
2022/12/25 00:55:04;;;;;;;12.23;6.37;;;6.90;99.90;;;;;;4112907;28;20039;-58
2022/12/25 00:57:05;;;;;;;13.90;7.60;;;6.90;99.90;;;;;;4113745;28;20030;-61
2022/12/25 00:59:07;;;;;;;10.07;6.80;;;6.80;99.90;;;;;;4112352;28;20042;-57
2022/12/25 01:01:10;;;;;;;11.17;6.27;;;6.70;99.90;;;;;;4113862;28;20488;-58
2022/12/25 01:03:11;;;;;;;15.87;8.27;;;6.70;99.90;;;;;;4111559;28;20165;-61
2022/12/25 01:05:12;;;;;;;10.37;6.77;;;6.60;99.90;;;;;;4113325;28;20113;-60
2022/12/25 01:07:15;;;;;;;11.37;6.73;;;6.60;99.90;;;;;;4112983;28;20039;-58
2022/12/25 01:11:36;;;;;;;12.07;7.53;;;6.50;99.90;;;;;;4112877;28;20035;-58
2022/12/25 01:13:37;;;;;;;13.10;7.10;;;6.50;99.90;;;;;;4114002;28;20039;-58
2022/12/25 01:15:38;;;;;;;12.10;6.93;;;6.40;99.90;;;;;;4112072;28;20031;-62
2022/12/25 01:17:41;;;;;;;9.13;6.80;;;6.40;99.90;;;;;;4113772;28;20090;-61
2022/12/25 01:19:42;;;;;;;11.93;7.20;;;6.40;99.90;;;;;;4113170;28;20082;-57
2022/12/25 01:21:43;;;;;;;14.77;7.10;;;6.40;99.90;;;;;;4113320;28;20440;-57
2022/12/25 01:23:44;;;;;;;12.67;7.60;;;6.30;99.90;;;;;;4112380;28;20443;-61
2022/12/25 01:25:45;;;;;;;11.93;7.50;;;6.30;99.90;;;;;;4113329;28;20038;-62
2022/12/25 01:27:46;;;;;;;11.63;7.63;;;6.30;99.90;;;;;;4112667;28;20019;-61
2022/12/25 01:29:47;;;;;;;12.37;7.00;;;6.20;99.90;;;;;;4113106;28;20082;-61
2022/12/25 01:31:48;;;;;;;15.23;7.63;;;6.20;99.90;;;;;;4112691;28;20098;-58
2022/12/25 01:33:50;;;;;;;10.93;6.63;;;6.10;99.90;;;;;;4112826;28;20038;-62
2022/12/25 01:35:51;;;;;;;11.87;7.23;;;6.20;99.90;;;;;;4113264;28;20031;-60
2022/12/25 01:37:52;;;;;;;13.30;7.50;;;6.10;99.90;;;;;;4112498;28;20027;-68
2022/12/25 01:39:53;;;;;;;16.27;7.07;;;6.10;99.90;;;;;;4113425;28;20468;-61
2022/12/25 01:41:55;;;;;;;10.80;6.80;;;6.10;99.90;;;;;;4112032;28;20082;-59
2022/12/25 01:44:01;;;;;;;11.43;6.93;;;6.10;99.90;;;;;;4113405;28;20043;-59
2022/12/25 01:46:05;;;;;;;12.10;7.37;;;6.10;99.90;;;;;;4112311;28;20094;-57
2022/12/25 01:48:11;;;;;;;12.70;6.93;;;6.10;99.90;;;;;;4112527;28;20094;-61
2022/12/25 01:50:13;;;;;;;13.10;7.10;;;6.10;99.90;;;;;;4112467;28;20035;-64
2022/12/25 01:52:22;;;;;;;10.67;7.20;;;6.10;99.90;;;;;;4113391;28;20035;-57
2022/12/25 01:54:35;;;;;;;14.00;7.10;;;6.20;99.90;;;;;;4111497;28;20487;-60
2022/12/25 01:56:37;;;;;;;11.17;6.77;;;6.20;99.90;;;;;;4112884;28;20043;-59
2022/12/25 01:58:39;;;;;;;10.83;6.20;;;6.20;99.90;;;;;;4111855;28;20038;-59
2022/12/25 02:00:40;;;;;;;14.40;7.87;;;6.20;99.90;;;;;;4112091;28;20031;-60
2022/12/25 02:02:43;;;;;;;14.27;7.43;;;6.20;99.90;;;;;;4112022;28;20649;-61
2022/12/25 02:04:52;;;;;;;12.97;6.67;;;6.20;99.90;;;;;;4113153;28;20058;-61
2022/12/25 02:06:54;;;;;;;10.37;6.70;;;6.30;99.90;;;;;;4112153;28;20118;-61
2022/12/25 02:08:56;;;;;;;9.67;7.57;;;6.20;99.90;;;;;;4112817;28;20377;-59
2022/12/25 02:10:57;;;;;;;14.10;8.20;;;6.30;99.90;;;;;;4111558;28;20085;-59
2022/12/25 02:13:00;;;;;;;17.77;8.30;;;6.20;99.90;;;;;;4112702;28;20361;-61
2022/12/25 02:15:08;;;;;;;15.60;8.63;;;6.20;99.90;;;;;;4112784;28;20100;-60
2022/12/25 02:17:18;;;;;;;25.90;12.90;;;6.20;99.90;;;;;;4111616;28;20073;-61
2022/12/25 02:19:48;;;;;;;19.13;9.90;;;6.20;99.90;;;;;;4112310;28;20034;-57
2022/12/25 02:21:49;;;;;;;17.20;8.95;;;6.20;99.90;;;;;;4112084;28;20035;-59
2022/12/25 02:23:59;;;;;;;13.13;8.10;;;6.20;99.90;;;;;;4112320;28;20566;-60
2022/12/25 02:26:16;;;;;;;11.77;7.20;;;6.20;99.90;;;;;;4112229;28;20054;-57
2022/12/25 02:28:45;;;;;;;10.93;7.30;;;6.20;99.90;;;;;;4112286;28;20319;-60
2022/12/25 02:30:53;;;;;;;11.53;7.00;;;6.10;99.90;;;;;;4112396;28;20048;-58
2022/12/25 02:35:29;;;;;;;13.37;6.57;;;6.10;99.90;;;;;;4113008;28;20090;-58
2022/12/25 02:37:39;;;;;;;15.30;7.50;;;6.10;99.90;;;;;;4111879;28;20035;-58
2022/12/25 02:40:11;;;;;;;11.52;6.85;;;6.10;99.90;;;;;;4112532;28;20050;-60
2022/12/25 02:42:20;;;;;;;16.07;7.70;;;6.10;99.90;;;;;;4112009;28;20106;-57
2022/12/25 03:08:23;;;;;;;22.37;12.10;;;5.70;99.90;;;;;;4111742;28;20431;-56
2022/12/25 03:13:05;;;;;;;11.37;7.50;;;5.50;99.90;;;;;;4113512;28;20098;-58
2022/12/25 03:17:32;;;;;;;12.70;8.47;;;5.60;99.90;;;;;;4114574;28;20083;-61
2022/12/25 03:28:53;;;;;;;14.93;7.13;;;5.50;99.90;;;;;;4115128;28;20073;-59
2022/12/25 03:31:34;;;;;;;11.93;8.03;;;5.50;99.90;;;;;;4114317;28;20434;-60
2022/12/25 03:33:37;;;;;;;12.07;8.47;;;5.50;99.90;;;;;;4111238;28;20446;-57
2022/12/25 03:35:47;;;;;;;;;;;5.60;99.90;;;;;;4114763;28;20043;-60
2022/12/25 03:46:56;;;;;;;13.27;8.50;;;5.60;99.90;;;;;;4115265;28;20121;-61
2022/12/25 04:37:35;;;;;;;13.17;8.10;;;4.90;99.90;;;;;;4114502;28;20363;-59
2022/12/25 04:39:36;;;;;;;16.40;8.00;;;4.90;99.90;;;;;;4113254;28;20331;-60
2022/12/25 04:41:37;;;;;;;12.27;7.20;;;4.90;99.90;;;;;;4113882;28;20035;-60
2022/12/25 04:43:38;;;;;;;14.57;8.33;;;4.80;99.90;;;;;;4112427;28;20296;-57
2022/12/25 04:45:39;;;;;;;14.23;7.80;;;4.70;99.90;;;;;;4113681;28;20376;-61
2022/12/25 04:47:41;;;;;;;13.27;7.43;;;4.70;99.90;;;;;;4113190;28;20031;-60
2022/12/25 04:49:42;;;;;;;15.73;7.67;;;4.70;99.90;;;;;;4114346;28;20276;-60
2022/12/25 04:51:43;;;;;;;12.57;7.27;;;4.70;99.90;;;;;;4113509;28;20427;-58
2022/12/25 04:53:45;;;;;;;17.03;8.80;;;4.70;99.90;;;;;;4114308;28;20808;-58
2022/12/25 04:55:46;;;;;;;21.00;10.63;;;4.80;99.90;;;;;;4113218;28;20265;-59
2022/12/25 04:57:47;;;;;;;17.70;7.70;;;4.80;99.90;;;;;;4114090;28;20475;-61
2022/12/25 04:59:48;;;;;;;14.37;7.93;;;4.80;99.90;;;;;;4113115;28;20291;-59
2022/12/25 05:01:49;;;;;;;15.50;8.63;;;4.80;99.90;;;;;;4113554;28;20606;-60
2022/12/25 05:03:50;;;;;;;17.03;8.80;;;4.90;99.90;;;;;;4112966;28;20351;-58
2022/12/25 05:05:52;;;;;;;15.13;7.30;;;4.90;99.90;;;;;;4112391;28;20419;-55
2022/12/25 05:07:53;;;;;;;17.10;7.57;;;4.90;99.90;;;;;;4112931;28;20276;-58
2022/12/25 05:09:54;;;;;;;11.17;6.43;;;4.90;99.90;;;;;;4112971;28;20260;-61
2022/12/25 05:11:55;;;;;;;12.77;6.67;;;4.80;99.90;;;;;;4113904;28;20026;-57
2022/12/25 05:13:56;;;;;;;11.47;6.20;;;4.80;99.90;;;;;;4112752;28;20323;-58
2022/12/25 05:15:57;;;;;;;11.33;6.33;;;4.80;99.90;;;;;;4113840;28;20745;-59
2022/12/25 05:17:59;;;;;;;12.63;6.87;;;4.70;99.90;;;;;;4112903;28;20042;-59
2022/12/25 05:20:00;;;;;;;10.63;6.57;;;4.80;99.90;;;;;;4113720;28;20273;-58
2022/12/25 05:22:01;;;;;;;10.57;6.60;;;4.70;99.90;;;;;;4112318;28;20277;-59
2022/12/25 05:24:02;;;;;;;12.57;6.57;;;4.70;99.90;;;;;;4113299;28;20288;-61
2022/12/25 05:26:05;;;;;;;11.47;7.43;;;4.70;99.90;;;;;;4111926;28;20277;-57
2022/12/25 05:28:07;;;;;;;12.23;6.97;;;4.70;99.90;;;;;;4113453;28;20277;-60
2022/12/25 05:30:08;;;;;;;11.83;7.97;;;4.60;99.90;;;;;;4112614;28;20359;-58
2022/12/25 05:32:09;;;;;;;12.93;7.17;;;4.60;99.90;;;;;;4113339;28;20749;-58
2022/12/25 05:34:10;;;;;;;12.90;6.83;;;4.50;99.90;;;;;;4111862;28;20294;-59
2022/12/25 05:36:12;;;;;;;11.63;6.87;;;4.50;99.90;;;;;;4112976;28;20265;-58
2022/12/25 05:38:13;;;;;;;11.50;6.70;;;4.50;99.90;;;;;;4112655;28;20316;-54
2022/12/25 05:40:14;;;;;;;11.13;6.77;;;4.50;99.90;;;;;;4112476;28;20261;-58
2022/12/25 05:42:15;;;;;;;12.27;6.80;;;4.50;99.90;;;;;;4112890;28;20272;-58
2022/12/25 05:44:16;;;;;;;14.20;7.03;;;4.50;99.90;;;;;;4111606;28;20347;-59
2022/12/25 05:46:17;;;;;;;14.53;6.87;;;4.50;99.90;;;;;;4113222;28;20273;-59
2022/12/25 05:48:19;;;;;;;9.30;5.43;;;4.50;99.90;;;;;;4111975;28;20276;-57
2022/12/25 05:50:20;;;;;;;11.13;6.70;;;4.60;99.90;;;;;;4113515;28;20320;-58
2022/12/25 05:52:21;;;;;;;10.23;5.70;;;4.60;99.90;;;;;;4112340;28;20316;-59
2022/12/25 05:54:22;;;;;;;11.10;5.40;;;4.60;99.90;;;;;;4113298;28;20802;-59
2022/12/25 05:56:23;;;;;;;8.50;4.83;;;4.60;99.90;;;;;;4111987;28;20324;-56
2022/12/25 05:58:24;;;;;;;8.20;5.70;;;4.70;99.90;;;;;;4113382;28;20439;-58
2022/12/25 06:00:25;;;;;;;12.20;6.63;;;4.70;99.90;;;;;;4111740;28;20320;-60
2022/12/25 06:02:27;;;;;;;10.27;6.07;;;4.70;99.90;;;;;;4112602;28;20109;-60
2022/12/25 06:04:28;;;;;;;9.03;5.63;;;4.70;99.90;;;;;;4112089;28;20347;-60
2022/12/25 06:06:29;;;;;;;9.53;5.77;;;4.70;99.90;;;;;;4111740;28;20077;-59
2022/12/25 06:08:30;;;;;;;9.23;5.77;;;4.70;99.90;;;;;;4112311;28;20475;-61
2022/12/25 06:10:31;;;;;;;12.17;5.80;;;4.70;99.90;;;;;;4096360;29;20360;-59
2022/12/25 06:12:32;;;;;;;10.00;5.47;;;4.70;99.90;;;;;;4096976;29;20110;-57
2022/12/25 06:14:35;;;;;;;11.43;6.30;;;4.70;99.90;;;;;;4096104;29;20035;-53
2022/12/25 06:16:36;;;;;;;10.13;6.00;;;4.60;99.90;;;;;;4097154;29;20642;-59
2022/12/25 06:18:44;;;;;;;8.83;5.13;;;4.60;99.90;;;;;;4103165;28;20328;-58
2022/12/25 06:20:45;;;;;;;7.50;4.90;;;4.60;99.90;;;;;;4113456;28;20685;-58
2022/12/25 06:22:46;;;;;;;7.33;3.90;;;4.60;99.90;;;;;;4111996;28;20327;-57
2022/12/25 06:24:47;;;;;;;7.50;4.30;;;4.70;99.90;;;;;;4095529;29;20356;-54
2022/12/25 06:26:49;;;;;;;8.97;4.53;;;4.90;99.90;;;;;;4111553;28;20093;-57
2022/12/25 06:28:50;;;;;;;10.33;4.73;;;5.10;99.90;;;;;;4113071;28;20304;-59
2022/12/25 06:30:51;;;;;;;7.33;4.73;;;5.40;99.90;;;;;;4111708;28;20753;-57
2022/12/25 06:32:52;;;;;;;7.00;4.70;;;5.60;99.90;;;;;;4112225;28;20324;-60
2022/12/25 06:34:53;;;;;;;10.50;6.30;;;5.80;99.90;;;;;;4112131;28;20361;-57
2022/12/25 06:36:54;;;;;;;8.00;5.13;;;6.00;99.90;;;;;;4112529;28;20027;-60
2022/12/25 06:38:58;;;;;;;11.97;5.10;;;6.30;99.90;;;;;;4112234;28;20027;-59
2022/12/25 06:41:07;;;;;;;9.67;5.57;;;6.60;99.90;;;;;;4111784;28;20043;-58
2022/12/25 06:43:08;;;;;;;6.00;4.37;;;6.90;99.90;;;;;;4112533;28;20058;-60
2022/12/25 06:45:10;;;;;;;11.83;5.43;;;7.20;99.90;;;;;;4111509;28;20065;-60
2022/12/25 06:47:11;;;;;;;7.97;4.70;;;7.30;99.90;;;;;;4115651;28;20554;-59
2022/12/25 06:49:12;;;;;;;9.80;5.20;;;7.50;99.90;;;;;;4114833;28;20038;-58
2022/12/25 06:51:17;;;;;;;8.30;4.53;;;7.70;99.90;;;;;;4116487;28;20455;-60
2022/12/25 06:53:18;;;;;;;7.80;4.53;;;7.80;99.90;;;;;;4114791;28;20027;-60
2022/12/25 06:55:20;;;;;;;7.57;4.40;;;7.60;99.90;;;;;;4115394;28;20094;-60
2022/12/25 06:57:21;;;;;;;9.03;5.20;;;7.30;99.90;;;;;;4114641;28;20442;-60
2022/12/25 06:59:22;;;;;;;8.77;4.93;;;7.00;99.90;;;;;;4116076;28;20030;-58
2022/12/25 07:01:30;;;;;;;8.30;5.33;;;6.80;99.90;;;;;;4097561;29;20040;-59
2022/12/25 07:03:31;;;;;;;10.10;5.53;;;6.60;99.90;;;;;;4115626;28;20039;-63
2022/12/25 07:05:32;;;;;;;13.97;5.63;;;6.50;99.90;;;;;;4113952;28;20093;-61
2022/12/25 07:07:33;;;;;;;8.87;5.37;;;6.40;99.90;;;;;;4115098;28;20035;-61
2022/12/25 07:09:37;;;;;;;8.13;5.03;;;6.40;99.90;;;;;;4114937;28;20508;-60
2022/12/25 07:11:38;;;;;;;7.97;5.07;;;6.40;99.90;;;;;;4114931;28;20050;-61
2022/12/25 07:13:39;;;;;;;10.73;5.40;;;6.30;99.90;;;;;;4114530;28;20046;-58
2022/12/25 07:15:41;;;;;;;8.90;5.20;;;6.40;99.90;;;;;;4114761;28;20034;-59
2022/12/25 07:17:42;;;;;;;8.07;4.87;;;6.40;99.90;;;;;;4114782;28;20077;-58
2022/12/25 07:19:44;;;;;;;10.43;5.40;;;6.40;99.90;;;;;;4114674;28;20031;-59
2022/12/25 07:21:46;;;;;;;8.90;4.97;;;6.40;99.90;;;;;;4115925;28;20486;-59
2022/12/25 07:23:48;;;;;;;10.10;5.00;;;6.40;99.90;;;;;;4114396;28;20113;-59
2022/12/25 07:25:57;;;;;;;7.30;4.47;;;6.40;99.90;;;;;;4115065;28;20491;-62
2022/12/25 07:27:58;;;;;;;8.93;5.17;;;6.50;99.90;;;;;;4113665;28;20085;-60
2022/12/25 07:29:59;;;;;;;7.77;4.53;;;6.50;99.90;;;;;;4114790;28;20101;-56
2022/12/25 07:32:00;;;;;;;8.97;4.53;;;6.50;99.90;;;;;;4114030;28;20026;-59
2022/12/25 07:34:01;;;;;;;8.03;5.43;;;6.50;99.90;;;;;;4115380;28;20158;-56
2022/12/25 07:36:05;;;;;;;11.17;5.23;;;6.50;99.90;;;;;;4114355;28;20530;-61
2022/12/25 07:38:06;;;;;;;9.53;5.33;;;6.40;99.90;;;;;;4115491;28;20498;-63
2022/12/25 07:40:08;;;;;;;7.53;4.90;;;6.40;99.90;;;;;;4114247;28;20113;-58
2022/12/25 07:42:09;;;;;;;11.27;4.90;;;6.50;99.90;;;;;;4115307;28;20078;-64
2022/12/25 07:44:10;;;;;;;7.77;4.50;;;6.50;99.90;;;;;;4113635;28;20093;-58
2022/12/25 07:46:11;;;;;;;9.33;5.03;;;6.50;99.90;;;;;;4114942;28;20034;-60
2022/12/25 07:48:12;;;;;;;10.37;4.87;;;6.80;99.90;;;;;;4113542;28;20085;-59
2022/12/25 07:50:13;;;;;;;9.00;5.60;;;7.20;99.90;;;;;;4114547;28;20035;-59
2022/12/25 07:52:14;;;;;;;9.83;5.70;;;7.70;99.90;;;;;;4098710;28;20031;-60
2022/12/25 07:54:16;;;;;;;10.17;5.70;;;8.20;99.90;;;;;;4113907;28;20423;-58
2022/12/25 07:56:19;;;;;;;11.67;6.00;;;8.60;99.90;;;;;;4115112;28;20101;-60
2022/12/25 07:58:20;;;;;;;7.77;5.13;;;9.00;99.90;;;;;;4113050;28;20034;-60
2022/12/25 08:00:21;;;;;;;8.20;5.20;;;9.50;99.90;;;;;;4114759;28;20098;-60
2022/12/25 08:02:27;;;;;;;9.47;5.73;;;10.00;99.90;;;;;;4113862;28;20553;-58
2022/12/25 08:04:28;;;;;;;8.13;5.13;;;10.40;99.90;;;;;;4114181;28;20462;-61
2022/12/25 08:06:31;;;;;;;8.17;5.00;;;11.00;99.90;;;;;;4112500;28;20038;-59
2022/12/25 08:08:33;;;;;;;8.20;5.40;;;11.30;99.90;;;;;;4114174;28;20057;-57
2022/12/25 08:10:35;;;;;;;9.90;5.70;;;11.40;99.90;;;;;;4112838;28;20455;-59
2022/12/25 08:12:37;;;;;;;9.13;5.13;;;11.10;99.90;;;;;;4114892;28;20039;-59
2022/12/25 08:14:38;;;;;;;9.33;6.10;;;10.40;99.90;;;;;;4113785;28;20097;-61
2022/12/25 08:16:40;;;;;;;7.83;5.03;;;9.90;99.90;;;;;;4114777;28;20038;-59
2022/12/25 08:18:42;;;;;;;7.93;4.83;;;9.50;99.90;;;;;;4113035;28;20026;-61
2022/12/25 08:20:43;;;;;;;11.33;5.60;;;9.30;99.90;;;;;;4112843;28;20102;-62
2022/12/25 08:22:44;;;;;;;10.23;5.93;;;9.10;99.90;;;;;;4113392;28;20050;-61
2022/12/25 08:24:45;;;;;;;11.30;6.10;;;8.90;99.90;;;;;;4113249;28;20039;-60
2022/12/25 08:26:47;;;;;;;9.53;5.47;;;8.90;99.90;;;;;;4113163;28;20031;-59
2022/12/25 08:28:49;;;;;;;9.17;5.83;;;8.80;99.90;;;;;;4113498;28;20364;-60
2022/12/25 08:30:51;;;;;;;12.27;6.23;;;8.70;99.90;;;;;;4111455;28;20046;-60
2022/12/25 08:32:52;;;;;;;12.20;5.80;;;8.60;99.90;;;;;;4101341;28;20046;-59
2022/12/25 08:34:53;;;;;;;9.67;5.57;;;8.60;99.90;;;;;;4113409;28;20102;-59
2022/12/25 08:36:54;;;;;;;8.63;5.83;;;8.40;99.90;;;;;;4113298;28;20554;-61
2022/12/25 08:38:55;;;;;;;9.97;5.27;;;8.40;99.90;;;;;;4099836;28;20558;-58
2022/12/25 08:40:56;;;;;;;11.43;5.57;;;8.30;99.90;;;;;;4112640;28;20077;-58
2022/12/25 08:42:57;;;;;;;11.77;5.67;;;8.30;99.90;;;;;;4114318;28;20038;-61
2022/12/25 08:44:59;;;;;;;10.30;6.07;;;8.20;99.90;;;;;;4112251;28;20467;-60
2022/12/25 08:47:00;;;;;;;11.40;5.50;;;8.30;99.90;;;;;;4113835;28;20042;-60
2022/12/25 08:49:01;;;;;;;9.93;6.27;;;8.40;99.90;;;;;;4113167;28;20081;-60
2022/12/25 08:51:03;;;;;;;10.77;6.37;;;8.50;99.90;;;;;;4113553;28;20102;-58
2022/12/25 08:53:05;;;;;;;14.57;7.43;;;8.60;99.90;;;;;;4113010;28;20077;-59
2022/12/25 08:55:07;;;;;;;11.23;7.50;;;8.70;99.90;;;;;;4112373;28;20035;-59
2022/12/25 08:57:08;;;;;;;25.27;15.80;;;8.70;99.90;;;;;;4096273;29;20039;-59
2022/12/25 08:59:10;;;;;;;21.93;12.30;;;8.80;99.90;;;;;;4113252;28;20074;-60
2022/12/25 09:01:12;;;;;;;24.27;15.67;;;8.90;99.90;;;;;;4113992;28;20034;-59
2022/12/25 09:03:13;;;;;;;25.00;13.70;;;8.90;99.90;;;;;;4112269;28;20039;-60
2022/12/25 09:05:14;;;;;;;19.77;13.10;;;9.00;99.90;;;;;;4113449;28;20393;-60
2022/12/25 09:07:16;;;;;;;18.63;10.07;;;9.00;99.90;;;;;;4112739;28;20030;-60
2022/12/25 09:09:17;;;;;;;31.50;16.37;;;9.10;99.90;;;;;;4113969;28;20534;-59
2022/12/25 09:11:19;;;;;;;28.87;16.33;;;9.10;99.90;;;;;;4111408;28;20047;-57
2022/12/25 09:13:20;;;;;;;29.30;18.73;;;9.00;99.90;;;;;;4113469;28;20035;-60
2022/12/25 09:15:21;;;;;;;19.93;13.23;;;9.10;99.90;;;;;;4111425;28;20050;-62
2022/12/25 09:17:22;;;;;;;15.33;10.97;;;9.10;99.90;;;;;;4113939;28;20034;-58
2022/12/25 09:19:23;;;;;;;15.60;10.17;;;9.10;99.90;;;;;;4112278;28;20562;-60
2022/12/25 09:21:24;;;;;;;13.60;8.80;;;9.10;99.90;;;;;;4113684;28;20073;-60
2022/12/25 09:23:27;;;;;;;9.83;6.60;;;9.10;99.90;;;;;;4103748;28;20022;-57
2022/12/25 09:25:28;;;;;;;7.03;5.27;;;9.10;99.90;;;;;;4103095;28;20574;-58
2022/12/25 09:27:29;;;;;;;9.97;6.30;;;9.10;99.90;;;;;;4107585;28;20034;-58
2022/12/25 09:29:30;;;;;;;10.33;7.30;;;9.10;99.90;;;;;;4112725;28;20472;-61
2022/12/25 09:31:31;;;;;;;9.20;6.20;;;9.20;99.90;;;;;;4110874;28;20030;-60
2022/12/25 09:33:32;;;;;;;10.67;5.90;;;9.20;99.90;;;;;;4110913;28;20022;-60
2022/12/25 09:35:34;;;;;;;10.73;7.20;;;9.20;99.90;;;;;;4098323;28;20050;-59
2022/12/25 09:37:35;;;;;;;11.07;6.87;;;9.30;99.90;;;;;;4111646;28;20094;-59
2022/12/25 09:39:36;;;;;;;9.43;6.33;;;9.30;99.90;;;;;;4108914;28;20074;-57
2022/12/25 09:41:57;;;;;;;12.10;6.20;;;9.30;99.90;;;;;;4111397;28;20466;-59
2022/12/25 09:44:15;;;;;;;10.00;5.33;;;9.40;99.90;;;;;;4112907;28;20081;-59
2022/12/25 09:46:22;;;;;;;13.23;7.20;;;9.40;99.90;;;;;;4111805;28;20043;-59
2022/12/25 09:48:23;;;;;;;12.10;7.10;;;9.40;99.90;;;;;;4112829;28;20075;-59
2022/12/25 09:50:51;;;;;;;13.83;7.33;;;9.40;99.90;;;;;;4111547;28;20044;-59
2022/12/25 09:53:15;;;;;;;11.77;5.23;;;9.50;99.90;;;;;;4112864;28;20093;-60
2022/12/25 09:55:23;;;;;;;8.43;4.90;;;9.60;99.90;;;;;;4111621;28;20031;-63
2022/12/25 09:57:25;;;;;;;9.33;4.20;;;9.60;99.90;;;;;;4112963;28;20031;-64
2022/12/25 09:59:26;;;;;;;6.33;3.97;;;9.50;99.90;;;;;;4111203;28;20046;-63
2022/12/25 10:01:39;;;;;;;5.87;3.70;;;9.60;99.90;;;;;;4113163;28;20097;-62
2022/12/25 10:03:51;;;;;;;7.57;4.50;;;9.70;99.90;;;;;;4111768;28;20542;-61
2022/12/25 10:06:18;;;;;;;7.30;3.90;;;9.70;99.90;;;;;;4111829;28;20059;-60
2022/12/25 10:08:26;;;;;;;8.63;4.63;;;9.70;99.90;;;;;;4110491;28;20039;-62
2022/12/25 10:11:16;;;;;;;9.13;4.53;;;9.70;99.90;;;;;;4112737;28;20030;-61
2022/12/25 10:13:38;;;;;;;8.47;4.67;;;9.70;99.90;;;;;;4112884;28;20503;-61
2022/12/25 10:15:58;;;;;;;8.07;4.67;;;9.80;99.90;;;;;;4111295;28;20070;-62
2022/12/25 10:18:18;;;;;;;6.53;4.17;;;9.80;99.90;;;;;;4113066;28;20423;-61
2022/12/25 10:20:41;;;;;;;6.75;4.10;;;9.90;99.90;;;;;;4112414;28;20031;-62
2022/12/25 10:23:12;;;;;;;8.20;4.63;;;9.90;99.90;;;;;;4116375;28;20034;-61
2022/12/25 10:25:17;;;;;;;7.73;5.20;;;9.90;99.90;;;;;;4116067;28;20105;-59
2022/12/25 10:27:31;;;;;;;7.97;5.43;;;9.90;99.90;;;;;;4118287;28;20447;-74
2022/12/25 10:29:34;;;;;;;11.33;5.17;;;10.00;99.90;;;;;;4116341;28;20066;-64
2022/12/25 10:31:38;;;;;;;8.70;4.53;;;10.00;99.90;;;;;;4118320;28;20479;-63
2022/12/25 10:33:39;;;;;;;11.03;5.60;;;10.10;99.90;;;;;;4116779;28;20062;-62
2022/12/25 10:35:41;;;;;;;6.73;4.53;;;10.20;99.90;;;;;;4100432;29;20567;-61
2022/12/25 10:37:45;;;;;;;6.57;4.03;;;10.30;99.90;;;;;;4115926;28;20043;-62
2022/12/25 10:39:46;;;;;;;9.37;4.17;;;10.40;99.90;;;;;;4118269;28;20026;-61
2022/12/25 10:42:18;;;;;;;5.50;3.80;;;10.50;99.90;;;;;;4117133;28;20027;-63
2022/12/25 10:44:23;;;;;;;6.37;3.07;;;10.70;99.90;;;;;;4118217;28;20030;-63
2022/12/25 10:46:27;;;;;;;7.77;3.87;;;10.80;99.90;;;;;;4116356;28;20047;-63
2022/12/25 10:48:29;;;;;;;7.30;3.53;;;10.80;99.90;;;;;;4117163;28;20038;-62
2022/12/25 10:50:32;;;;;;;5.30;3.13;;;10.90;99.90;;;;;;4116053;28;20105;-66
2022/12/25 10:52:34;;;;;;;4.30;2.60;;;11.00;99.90;;;;;;4117412;28;20102;-64
2022/12/25 10:54:35;;;;;;;3.90;2.73;;;11.00;99.90;;;;;;4098822;29;20156;-61
2022/12/25 10:56:36;;;;;;;7.33;3.90;;;11.10;99.90;;;;;;4117442;28;20046;-63
2022/12/25 10:58:38;;;;;;;4.33;2.80;;;11.10;99.90;;;;;;4116739;28;20038;-62
2022/12/25 11:00:39;;;;;;;4.70;2.93;;;11.10;99.90;;;;;;4116965;28;20034;-64
2022/12/25 11:02:40;;;;;;;5.47;3.23;;;11.20;99.90;;;;;;4116703;28;20031;-62
2022/12/25 11:04:41;;;;;;;3.67;1.83;;;11.20;99.90;;;;;;4116201;28;20086;-62
2022/12/25 11:06:42;;;;;;;5.27;3.10;;;11.20;99.90;;;;;;4117621;28;20098;-64
2022/12/25 11:08:57;;;;;;;6.57;4.23;;;11.20;99.90;;;;;;4116877;28;20472;-63
2022/12/25 11:11:06;;;;;;;9.70;5.43;;;11.20;99.90;;;;;;4117828;28;20046;-61
2022/12/25 11:13:19;;;;;;;4.20;1.60;;;11.20;99.90;;;;;;4116827;28;20035;-61
2022/12/25 11:15:38;;;;;;;1.80;0.80;;;11.20;99.90;;;;;;4117623;28;20035;-65
2022/12/25 11:17:48;;;;;;;2.17;0.87;;;11.00;99.90;;;;;;4116536;28;20030;-67
2022/12/25 11:19:57;;;;;;;2.70;0.82;;;11.00;99.90;;;;;;4116612;28;20545;-61
2022/12/25 11:22:00;;;;;;;2.70;0.57;;;11.00;99.90;;;;;;4117402;28;20043;-63
2022/12/25 11:24:16;;;;;;;2.60;0.93;;;11.10;99.90;;;;;;4116663;28;20043;-60
2022/12/25 11:26:17;;;;;;;0.63;0.50;;;11.00;99.90;;;;;;4116215;28;20062;-63
2022/12/25 11:28:19;;;;;;;1.47;0.77;;;11.10;99.90;;;;;;4117561;28;20030;-62
2022/12/25 11:30:20;;;;;;;4.83;1.00;;;11.10;99.90;;;;;;4115696;28;20039;-65
2022/12/25 11:32:36;;;;;;;1.03;0.60;;;11.00;99.90;;;;;;4115070;28;20121;-64
2022/12/25 11:34:43;;;;;;;3.00;0.53;;;10.90;99.90;;;;;;4113668;28;20074;-65
2022/12/25 11:36:47;;;;;;;2.10;0.70;;;10.80;99.90;;;;;;4114786;28;20125;-63
2022/12/25 11:38:51;;;;;;;5.17;0.70;;;10.80;99.90;;;;;;4113922;28;20499;-65
2022/12/25 11:40:54;;;;;;;1.73;0.90;;;10.70;99.90;;;;;;4098155;29;20090;-64
2022/12/25 11:43:04;;;;;;;5.70;2.53;;;10.70;99.90;;;;;;4113819;28;20038;-64
2022/12/25 11:45:13;;;;;;;2.95;1.35;;;10.60;99.90;;;;;;4114786;28;20043;-63
2022/12/25 11:47:29;;;;;;;1.60;0.73;;;10.70;99.90;;;;;;4113480;28;20023;-62
2022/12/25 11:49:39;;;;;;;3.77;0.80;;;10.70;99.90;;;;;;4114989;28;20360;-64
2022/12/25 11:51:44;;;;;;;2.60;0.77;;;10.70;99.90;;;;;;4113869;28;20066;-64
2022/12/25 11:53:57;;;;;;;6.27;0.70;;;10.70;99.90;;;;;;4114096;28;20463;-65
2022/12/25 11:56:04;;;;;;;2.63;0.70;;;10.80;99.90;;;;;;4113142;28;20035;-65
2022/12/25 11:58:23;;;;;;;1.87;0.50;;;10.70;99.90;;;;;;4114515;28;20090;-63
2022/12/25 12:00:24;;;;;;;5.10;2.00;;;10.70;99.90;;;;;;4112673;28;20062;-64
2022/12/25 12:02:37;;;;;;;8.80;3.57;;;10.70;99.90;;;;;;4114951;28;20455;-65
2022/12/25 12:04:42;;;;;;;7.83;4.33;;;10.50;99.90;;;;;;4112917;28;20042;-66
2022/12/25 12:07:02;;;;;;;6.90;3.57;;;10.20;99.90;;;;;;4114660;28;20101;-63
2022/12/25 12:09:24;;;;;;;7.57;3.75;;;9.90;99.90;;;;;;4113469;28;20034;-64
2022/12/25 12:11:31;;;;;;;7.40;4.73;;;9.70;99.90;;;;;;4113723;28;20097;-65
2022/12/25 12:13:42;;;;;;;6.50;3.50;;;9.60;99.90;;;;;;4112693;28;20035;-64
2022/12/25 12:15:49;;;;;;;7.13;3.90;;;9.40;99.90;;;;;;4114494;28;20039;-62
2022/12/25 12:17:50;;;;;;;7.07;4.20;;;9.40;99.90;;;;;;4113585;28;20042;-63
2022/12/25 12:19:51;;;;;;;7.37;4.00;;;9.30;99.90;;;;;;4114852;28;20097;-62
2022/12/25 12:21:58;;;;;;;9.80;3.93;;;9.20;99.90;;;;;;4113888;28;20039;-63
2022/12/25 12:24:11;;;;;;;7.53;3.37;;;9.20;99.90;;;;;;4114195;28;20038;-65
2022/12/25 12:26:21;;;;;;;6.50;3.43;;;9.10;99.90;;;;;;4112866;28;20043;-71
2022/12/25 12:28:27;;;;;;;8.27;3.50;;;9.10;99.90;;;;;;4114323;28;20039;-68
2022/12/25 12:30:30;;;;;;;7.07;3.77;;;9.10;99.90;;;;;;4113293;28;20093;-63